createdAt,value
2018-09-18T00:01:05.699Z,77.90
2018-09-18T00:03:36.711Z,77.80
2018-09-18T00:06:08.204Z,77.90
2018-09-18T00:08:38.744Z,77.80
2018-09-18T00:11:10.873Z,77.60
2018-09-18T00:13:40.934Z,77.80
2018-09-18T00:16:12.085Z,77.70
2018-09-18T00:18:44.568Z,77.80
2018-09-18T00:21:16.764Z,78.10
2018-09-18T00:23:47.780Z,78.10
2018-09-18T00:26:19.324Z,78.00
2018-09-18T00:28:49.244Z,78.30
2018-09-18T00:31:25.118Z,78.50
2018-09-18T00:33:55.874Z,78.20
2018-09-18T00:36:27.814Z,78.20
2018-09-18T00:38:59.643Z,77.90
2018-09-18T00:41:30.394Z,78.00
2018-09-18T00:44:01.122Z,78.00
2018-09-18T00:46:31.895Z,78.00
2018-09-18T00:49:03.574Z,78.20
2018-09-18T00:51:42.954Z,78.10
2018-09-18T00:54:22.549Z,78.00
2018-09-18T00:56:54.187Z,78.00
2018-09-18T00:59:30.728Z,77.90
2018-09-18T01:02:02.927Z,77.60
2018-09-18T01:04:39.332Z,77.40
2018-09-18T01:07:14.553Z,77.40
2018-09-18T01:09:46.464Z,77.40
2018-09-18T01:12:26.460Z,77.40
2018-09-18T01:15:01.119Z,77.80
2018-09-18T01:17:31.569Z,77.90
2018-09-18T01:20:03.083Z,77.70
2018-09-18T01:22:35.864Z,77.70
2018-09-18T01:25:07.273Z,78.20
2018-09-18T01:27:39.433Z,77.60
2018-09-18T01:30:12.526Z,77.50
2018-09-18T01:32:45.663Z,77.40
2018-09-18T01:35:17.363Z,77.40
2018-09-18T01:37:51.794Z,77.50
2018-09-18T01:40:24.207Z,77.40
2018-09-18T01:42:56.614Z,77.40
2018-09-18T01:45:27.974Z,77.30
2018-09-18T01:48:00.804Z,77.30
2018-09-18T01:50:40.273Z,77.50
2018-09-18T01:53:12.421Z,77.40
2018-09-18T01:55:52.556Z,77.50
2018-09-18T01:58:24.143Z,77.50
2018-09-18T02:00:56.103Z,77.70
2018-09-18T02:03:35.596Z,77.30
2018-09-18T02:06:07.527Z,77.20
2018-09-18T02:08:41.157Z,76.90
2018-09-18T02:11:13.640Z,76.90
2018-09-18T02:13:45.160Z,76.70
2018-09-18T02:16:16.702Z,76.80
2018-09-18T02:18:48.947Z,76.90
2018-09-18T02:21:22.575Z,77.10
2018-09-18T02:23:54.387Z,76.90
2018-09-18T02:26:33.651Z,77.10
2018-09-18T02:29:06.410Z,77.00
2018-09-18T02:31:38.391Z,76.90
2018-09-18T02:34:11.230Z,76.90
2018-09-18T02:36:43.171Z,77.00
2018-09-18T02:39:16.771Z,77.10
2018-09-18T02:41:49.907Z,77.00
2018-09-18T02:44:21.553Z,77.00
2018-09-18T02:47:01.183Z,77.10
2018-09-18T02:49:32.306Z,77.10
2018-09-18T02:52:12.380Z,77.20
2018-09-18T02:54:52.598Z,77.10
2018-09-18T02:57:25.269Z,77.10
2018-09-18T02:59:55.521Z,77.10
2018-09-18T03:02:33.468Z,77.20
2018-09-18T03:05:05.267Z,77.80
2018-09-18T03:07:36.987Z,77.30
2018-09-18T03:10:09.290Z,77.20
2018-09-18T03:12:39.412Z,77.10
2018-09-18T03:15:11.047Z,76.90
2018-09-18T03:17:42.553Z,76.90
2018-09-18T03:20:14.384Z,76.40
2018-09-18T03:22:51.013Z,76.30
2018-09-18T03:25:23.764Z,76.30
2018-09-18T03:27:55.094Z,76.50
2018-09-18T03:30:26.350Z,76.30
2018-09-18T03:32:58.204Z,76.10
2018-09-18T03:35:30.403Z,76.30
2018-09-18T03:38:00.274Z,76.30
2018-09-18T03:40:39.255Z,76.30
2018-09-18T03:43:17.996Z,76.00
2018-09-18T03:45:50.197Z,76.10
2018-09-18T03:50:48.120Z,75.70
2018-09-18T03:53:19.270Z,75.50
2018-09-18T03:55:50.845Z,75.60
2018-09-18T03:58:22.026Z,75.60
2018-09-18T04:00:52.411Z,75.50
2018-09-18T04:03:24.106Z,75.60
2018-09-18T04:05:55.659Z,75.40
2018-09-18T04:08:27.613Z,75.10
2018-09-18T04:10:59.785Z,74.40
2018-09-18T04:13:29.491Z,74.90
2018-09-18T04:16:00.872Z,75.10
2018-09-18T04:18:32.122Z,75.10
2018-09-18T04:21:03.702Z,75.10
2018-09-18T04:23:35.502Z,74.70
2018-09-18T04:26:07.381Z,74.00
2018-09-18T04:28:38.943Z,74.00
2018-09-18T04:31:11.380Z,74.00
2018-09-18T04:33:41.088Z,73.00
2018-09-18T04:36:11.617Z,72.60
2018-09-18T04:38:50.553Z,72.20
2018-09-18T04:51:53.503Z,73.30
2018-09-18T04:54:59.530Z,73.00
2018-09-18T04:57:30.156Z,72.30
2018-09-18T05:00:01.118Z,72.10
2018-09-18T05:02:32.605Z,72.50
2018-09-18T05:05:04.465Z,71.70
2018-09-18T05:07:44.338Z,71.70
2018-09-18T05:10:24.192Z,72.00
2018-09-18T05:13:04.137Z,72.50
2018-09-18T05:15:34.579Z,72.80
2018-09-18T05:18:05.072Z,72.70
2018-09-18T05:20:36.017Z,72.60
2018-09-18T05:23:07.317Z,72.00
2018-09-18T05:25:37.720Z,72.80
2018-09-18T05:28:10.022Z,72.80
2018-09-18T05:30:42.269Z,72.10
2018-09-18T05:33:13.892Z,71.90
2018-09-18T05:35:45.062Z,72.10
2018-09-18T05:38:24.646Z,71.90
2018-09-18T05:40:55.606Z,72.70
2018-09-18T05:43:26.795Z,72.10
2018-09-18T05:46:06.584Z,72.10
2018-09-18T05:48:46.402Z,71.60
2018-09-18T05:51:25.923Z,71.40
2018-09-18T05:54:05.727Z,71.50
2018-09-18T05:56:45.028Z,71.70
2018-09-18T05:59:25.638Z,72.00
2018-09-18T06:01:57.279Z,71.80
2018-09-18T06:04:32.707Z,72.60
2018-09-18T06:07:09.928Z,73.10
2018-09-18T06:09:47.436Z,72.90
2018-09-18T06:12:27.251Z,73.00
2018-09-18T06:15:03.257Z,73.00
2018-09-18T06:17:41.532Z,72.30
2018-09-18T06:20:20.976Z,72.60
2018-09-18T06:22:52.388Z,71.70
2018-09-18T06:25:28.852Z,70.20
2018-09-18T06:28:06.999Z,67.60
2018-09-18T06:30:44.075Z,66.10
2018-09-18T06:33:24.165Z,64.40
2018-09-18T06:36:03.643Z,64.60
2018-09-18T06:38:43.267Z,64.50
2018-09-18T06:41:22.409Z,64.40
2018-09-18T06:43:56.767Z,64.10
2018-09-18T06:46:34.702Z,64.60
2018-09-18T06:49:14.944Z,65.30
2018-09-18T06:51:54.709Z,65.80
2018-09-18T06:54:32.753Z,65.80
2018-09-18T06:57:12.837Z,65.80
2018-09-18T06:59:52.524Z,65.90
2018-09-18T07:02:32.039Z,65.40
2018-09-18T07:05:11.554Z,65.10
2018-09-18T07:07:51.199Z,64.90
2018-09-18T07:10:31.134Z,63.50
2018-09-18T07:13:10.240Z,64.10
2018-09-18T07:15:50.269Z,62.40
2018-09-18T07:18:29.203Z,61.90
2018-09-18T07:21:06.577Z,62.40
2018-09-18T07:23:44.992Z,62.90
2018-09-18T07:26:25.135Z,62.70
2018-09-18T07:29:04.858Z,62.90
2018-09-18T07:31:44.345Z,64.40
2018-09-18T07:34:23.921Z,64.20
2018-09-18T07:37:03.257Z,63.70
2018-09-18T07:39:42.572Z,63.70
2018-09-18T07:42:22.058Z,63.70
2018-09-18T07:45:01.820Z,63.20
2018-09-18T07:47:41.280Z,63.40
2018-09-18T07:50:13.560Z,63.30
2018-09-18T07:52:48.887Z,63.50
2018-09-18T07:55:20.627Z,63.30
2018-09-18T07:57:59.729Z,63.70
2018-09-18T08:00:39.412Z,63.70
2018-09-18T08:03:18.851Z,63.30
2018-09-18T08:05:58.872Z,62.90
2018-09-18T08:08:38.656Z,63.00
2018-09-18T08:11:21.486Z,62.60
2018-09-18T08:13:57.865Z,62.80
2018-09-18T08:16:36.972Z,62.40
2018-09-18T08:19:16.605Z,62.20
2018-09-18T08:21:56.345Z,62.60
2018-09-18T08:24:35.855Z,63.20
2018-09-18T08:27:15.351Z,62.00
2018-09-18T08:29:55.503Z,60.30
2018-09-18T08:32:35.209Z,60.00
2018-09-18T08:35:15.123Z,61.80
2018-09-18T08:37:54.382Z,61.90
2018-09-18T08:40:33.870Z,60.40
2018-09-18T08:43:13.237Z,60.40
2018-09-18T08:45:53.331Z,59.70
2018-09-18T08:48:33.364Z,59.40
2018-09-18T08:51:12.526Z,59.60
2018-09-18T08:53:52.331Z,60.30
2018-09-18T08:56:31.769Z,60.60
2018-09-18T08:59:11.091Z,60.70
2018-09-18T09:01:50.287Z,61.20
2018-09-18T09:04:26.760Z,61.20
2018-09-18T09:07:02.937Z,60.20
2018-09-18T09:09:41.634Z,60.30
2018-09-18T09:12:22.258Z,60.90
2018-09-18T09:15:01.937Z,60.80
2018-09-18T09:17:42.131Z,61.10
2018-09-18T09:20:21.827Z,61.60
2018-09-18T09:23:01.217Z,61.30
2018-09-18T09:25:41.624Z,61.20
2018-09-18T09:28:21.389Z,61.90
2018-09-18T09:31:01.321Z,62.30
2018-09-18T09:33:41.014Z,60.60
2018-09-18T09:36:20.945Z,60.00
2018-09-18T09:39:00.579Z,59.90
2018-09-18T09:41:40.239Z,58.90
2018-09-18T09:44:19.811Z,58.50
2018-09-18T09:46:59.384Z,57.40
2018-09-18T09:49:38.976Z,55.70
2018-09-18T09:52:18.424Z,55.00
2018-09-18T09:54:58.838Z,55.00
2018-09-18T09:57:38.295Z,52.10
2018-09-18T10:00:22.811Z,53.10
2018-09-18T10:03:02.723Z,53.10
2018-09-18T10:05:37.799Z,52.80
2018-09-18T10:08:17.677Z,51.80
2018-09-18T10:10:53.307Z,52.10
2018-09-18T10:13:33.552Z,52.50
2018-09-18T10:16:10.891Z,52.40
2018-09-18T10:18:50.357Z,53.10
2018-09-18T10:21:30.041Z,51.90
2018-09-18T10:24:10.453Z,52.10
2018-09-18T10:26:49.852Z,52.90
2018-09-18T10:29:29.006Z,51.70
2018-09-18T10:32:08.111Z,51.70
2018-09-18T10:34:47.696Z,51.00
2018-09-18T10:37:27.339Z,51.30
2018-09-18T10:40:07.653Z,51.40
2018-09-18T10:42:46.932Z,50.80
2018-09-18T10:45:27.139Z,52.10
2018-09-18T10:48:06.088Z,51.20
2018-09-18T10:50:46.040Z,51.90
2018-09-18T10:53:20.383Z,50.50
2018-09-18T10:55:55.773Z,49.90
2018-09-18T10:58:35.740Z,49.50
2018-09-18T11:01:15.716Z,49.40
2018-09-18T11:03:52.951Z,50.30
2018-09-18T11:06:32.322Z,49.10
2018-09-18T11:09:12.578Z,49.60
2018-09-18T11:11:52.409Z,48.70
2018-09-18T11:14:32.670Z,50.00
2018-09-18T11:17:11.959Z,49.70
2018-09-18T11:19:52.352Z,50.60
2018-09-18T11:22:31.498Z,49.90
2018-09-18T11:25:10.783Z,50.80
2018-09-18T11:27:50.280Z,50.10
2018-09-18T11:30:30.924Z,49.50
2018-09-18T11:33:11.276Z,49.70
2018-09-18T11:35:51.919Z,49.90
2018-09-18T11:38:31.809Z,48.10
2018-09-18T11:41:11.917Z,49.40
2018-09-18T11:43:43.647Z,48.90
2018-09-18T11:46:23.386Z,49.10
2018-09-18T11:49:02.977Z,48.70
2018-09-18T11:51:41.261Z,49.50
2018-09-18T11:54:20.722Z,49.10
2018-09-18T11:57:01.661Z,49.10
2018-09-18T11:59:41.123Z,49.50
2018-09-18T12:02:21.213Z,49.20
2018-09-18T12:05:00.603Z,48.00
2018-09-18T12:07:40.382Z,49.00
2018-09-18T12:10:19.863Z,48.50
2018-09-18T12:12:59.247Z,48.10
2018-09-18T12:15:38.848Z,48.20
2018-09-18T12:18:18.374Z,48.40
2018-09-18T12:20:58.191Z,49.20
2018-09-18T12:23:37.516Z,48.70
2018-09-18T12:26:17.481Z,49.80
2018-09-18T12:28:57.024Z,49.10
2018-09-18T12:31:36.854Z,49.50
2018-09-18T12:34:15.962Z,50.10
2018-09-18T12:36:55.844Z,50.40
2018-09-18T12:39:35.642Z,50.70
2018-09-18T12:42:15.628Z,50.20
2018-09-18T12:44:56.516Z,49.80
2018-09-18T12:47:36.435Z,49.10
2018-09-18T12:50:16.445Z,50.60
2018-09-18T12:52:56.855Z,49.90
2018-09-18T12:55:36.739Z,49.20
2018-09-18T12:58:16.774Z,49.30
2018-09-18T13:00:57.115Z,50.40
2018-09-18T13:03:36.591Z,50.40
2018-09-18T13:06:13.919Z,50.60
2018-09-18T13:08:53.366Z,51.30
2018-09-18T13:11:31.387Z,50.90
2018-09-18T13:14:12.352Z,50.80
2018-09-18T13:16:51.653Z,50.20
2018-09-18T13:19:28.028Z,49.50
2018-09-18T13:22:07.299Z,50.80
2018-09-18T13:24:46.883Z,50.80
2018-09-18T13:27:26.615Z,51.50
2018-09-18T13:30:07.013Z,51.20
2018-09-18T13:32:46.897Z,51.70
2018-09-18T13:35:26.561Z,52.40
2018-09-18T13:38:05.986Z,53.10
2018-09-18T13:40:46.675Z,52.20
2018-09-18T13:43:27.553Z,52.60
2018-09-18T13:46:07.211Z,52.30
2018-09-18T13:48:47.076Z,51.60
2018-09-18T13:51:28.499Z,53.30
2018-09-18T13:54:09.320Z,52.40
2018-09-18T13:56:48.778Z,52.40
2018-09-18T13:59:28.340Z,51.80
2018-09-18T14:02:08.455Z,51.70
2018-09-18T14:04:48.095Z,52.00
2018-09-18T14:07:27.126Z,52.60
2018-09-18T14:10:07.974Z,52.80
2018-09-18T14:12:47.537Z,52.80
2018-09-18T14:15:27.410Z,53.40
2018-09-18T14:18:07.932Z,54.10
2018-09-18T14:20:47.502Z,52.80
2018-09-18T14:23:28.162Z,52.90
2018-09-18T14:26:08.404Z,53.50
2018-09-18T14:28:48.394Z,52.30
2018-09-18T14:31:27.882Z,52.40
2018-09-18T14:34:08.484Z,52.30
2018-09-18T14:36:48.483Z,52.90
2018-09-18T14:39:28.306Z,52.80
2018-09-18T14:42:08.202Z,54.20
2018-09-18T14:44:49.369Z,54.50
2018-09-18T14:47:28.667Z,55.10
2018-09-18T14:50:08.089Z,53.40
2018-09-18T14:52:47.188Z,53.20
2018-09-18T14:55:26.615Z,52.50
2018-09-18T14:58:07.044Z,51.90
2018-09-18T15:00:46.382Z,52.30
2018-09-18T15:09:03.288Z,52.60
2018-09-18T15:11:39.178Z,51.60
2018-09-18T15:14:18.961Z,51.90
2018-09-18T15:17:01.490Z,52.20
2018-09-18T15:19:53.754Z,51.70
2018-09-18T15:22:26.324Z,52.00
2018-09-18T15:25:04.372Z,53.70
2018-09-18T15:27:43.947Z,52.40
2018-09-18T15:30:23.311Z,52.40
2018-09-18T15:33:04.320Z,53.00
2018-09-18T15:35:43.608Z,52.60
2018-09-18T15:38:25.138Z,53.50
2018-09-18T15:41:05.989Z,54.20
2018-09-18T15:43:48.510Z,54.50
2018-09-18T15:46:28.609Z,52.80
2018-09-18T15:49:09.395Z,53.30
2018-09-18T15:51:50.105Z,54.40
2018-09-18T15:54:30.330Z,54.80
2018-09-18T15:57:10.206Z,54.70
2018-09-18T15:59:51.937Z,54.40
2018-09-18T16:02:32.448Z,55.00
2018-09-18T16:05:13.603Z,54.20
2018-09-18T16:07:55.327Z,52.80
2018-09-18T16:10:36.600Z,53.00
2018-09-18T16:13:17.701Z,53.00
2018-09-18T16:15:57.678Z,53.40
2018-09-18T16:18:37.851Z,55.60
2018-09-18T16:21:17.494Z,55.20
2018-09-18T16:23:57.227Z,56.00
2018-09-18T16:26:37.056Z,57.20
2018-09-18T16:29:17.502Z,58.90
2018-09-18T16:31:58.600Z,59.10
2018-09-18T16:34:39.367Z,59.20
2018-09-18T16:37:26.094Z,59.20
2018-09-18T16:40:00.147Z,60.80
2018-09-18T16:42:44.174Z,60.90
2018-09-18T16:45:24.005Z,59.90
2018-09-18T16:48:05.176Z,60.60
2018-09-18T16:50:45.658Z,60.40
2018-09-18T16:53:24.975Z,60.40
2018-09-18T16:56:00.912Z,60.30
2018-09-18T16:58:41.245Z,60.90
2018-09-18T17:01:24.027Z,61.20
2018-09-18T17:04:05.366Z,61.90
2018-09-18T17:06:49.138Z,62.20
2018-09-18T17:09:29.440Z,63.30
2018-09-18T17:12:09.872Z,63.90
2018-09-18T17:14:50.859Z,64.60
2018-09-18T17:17:31.920Z,65.20
2018-09-18T17:20:19.501Z,64.50
2018-09-18T17:22:53.657Z,64.60
2018-09-18T17:25:32.625Z,64.90
2018-09-18T17:28:16.478Z,65.60
2018-09-18T17:30:57.298Z,66.10
2018-09-18T17:33:38.292Z,66.50
2018-09-18T17:36:19.139Z,66.80
2018-09-18T17:38:59.281Z,67.00
2018-09-18T17:41:40.437Z,67.30
2018-09-18T17:44:23.098Z,68.00
2018-09-18T17:47:04.853Z,68.40
2018-09-18T17:49:43.409Z,68.90
2018-09-18T17:52:16.209Z,69.30
2018-09-18T17:54:56.557Z,69.60
2018-09-18T17:57:41.561Z,69.40
2018-09-18T18:00:22.488Z,69.60
2018-09-18T18:03:02.696Z,69.30
2018-09-18T18:05:43.987Z,69.30
2018-09-18T18:08:27.458Z,69.70
2018-09-18T18:11:43.767Z,69.90
2018-09-18T18:14:25.067Z,70.00
2018-09-18T18:17:06.267Z,69.60
2018-09-18T18:19:46.512Z,70.30
2018-09-18T18:22:31.256Z,70.60
2018-09-18T18:25:12.729Z,70.40
2018-09-18T18:27:54.936Z,69.70
2018-09-18T18:30:38.203Z,69.50
2018-09-18T18:33:20.003Z,69.90
2018-09-18T18:38:32.623Z,70.40
2018-09-18T18:41:10.876Z,70.80
2018-09-18T18:43:46.812Z,70.80
2018-09-18T18:46:23.689Z,70.10
2018-09-18T18:48:55.988Z,70.00
2018-09-18T18:51:38.381Z,70.10
2018-09-18T18:54:12.561Z,70.40
2018-09-18T18:56:46.883Z,70.50
2018-09-18T18:59:26.918Z,71.10
2018-09-18T19:02:15.477Z,71.60
2018-09-18T19:04:53.876Z,70.30
2018-09-18T19:07:33.918Z,67.90
2018-09-18T19:10:10.916Z,67.20
2018-09-18T19:12:53.660Z,65.70
2018-09-18T19:15:41.838Z,61.70
2018-09-18T19:18:16.617Z,60.70
2018-09-18T19:21:02.734Z,59.70
2018-09-18T19:23:54.179Z,60.20
2018-09-18T19:26:36.001Z,59.70
2018-09-18T19:29:09.819Z,59.00
2018-09-18T19:31:55.449Z,60.00
2018-09-18T19:34:39.478Z,58.20
2018-09-18T19:37:11.107Z,57.00
2018-09-18T19:39:43.860Z,55.60
2018-09-18T19:42:14.979Z,54.90
2018-09-18T19:44:47.011Z,55.70
2018-09-18T19:47:18.136Z,56.40
2018-09-18T19:49:49.955Z,57.20
2018-09-18T19:52:22.051Z,58.40
2018-09-18T19:54:54.199Z,59.10
2018-09-18T19:57:26.181Z,60.00
2018-09-18T19:59:58.831Z,61.30
2018-09-18T20:02:30.100Z,61.70
2018-09-18T20:05:05.949Z,64.30
2018-09-18T20:07:58.359Z,65.40
2018-09-18T20:10:44.708Z,68.70
2018-09-18T20:13:29.515Z,69.10
2018-09-18T20:16:01.630Z,70.90
2018-09-18T20:18:39.196Z,70.40
2018-09-18T20:21:13.500Z,70.40
2018-09-18T20:23:49.713Z,69.90
2018-09-18T20:26:34.189Z,71.50
2018-09-18T20:29:08.398Z,71.50
2018-09-18T20:31:42.350Z,71.70
2018-09-18T20:34:12.638Z,71.40
2018-09-18T20:36:43.747Z,72.40
2018-09-18T20:39:15.287Z,71.90
2018-09-18T20:41:46.657Z,72.00
2018-09-18T20:44:18.180Z,73.00
2018-09-18T20:46:51.157Z,72.20
2018-09-18T20:49:24.237Z,72.60
2018-09-18T20:51:56.337Z,73.40
2018-09-18T20:54:28.478Z,73.40
2018-09-18T20:56:59.937Z,73.90
2018-09-18T20:59:31.533Z,74.80
2018-09-18T21:02:02.707Z,75.50
2018-09-18T21:04:33.609Z,75.90
2018-09-18T21:07:04.019Z,75.20
2018-09-18T21:09:36.488Z,76.40
2018-09-18T21:12:07.627Z,75.80
2018-09-18T21:14:38.882Z,74.50
2018-09-18T21:17:10.193Z,75.40
2018-09-18T21:19:43.277Z,75.00
2018-09-18T21:22:14.950Z,75.70
2018-09-18T21:24:56.078Z,76.60
2018-09-18T21:27:35.481Z,76.20
2018-09-18T21:30:11.786Z,76.90
2018-09-18T21:32:42.775Z,76.50
2018-09-18T21:35:16.768Z,77.70
2018-09-18T21:37:48.837Z,76.90
2018-09-18T21:40:25.254Z,76.60
2018-09-18T21:42:56.025Z,76.80
2018-09-18T21:45:26.843Z,78.40
2018-09-18T21:47:58.195Z,78.30
2018-09-18T21:50:31.935Z,78.30
2018-09-18T21:53:04.875Z,78.30
2018-09-18T21:55:37.918Z,78.20
2018-09-18T21:58:09.804Z,78.70
2018-09-18T22:00:55.736Z,79.00
2018-09-18T22:03:26.982Z,78.40
2018-09-18T22:05:59.065Z,77.80
2018-09-18T22:08:31.427Z,77.70
2018-09-18T22:11:02.426Z,78.00
2018-09-18T22:13:35.364Z,78.10
2018-09-18T22:16:07.525Z,78.20
2018-09-18T22:18:44.726Z,78.60
2018-09-18T22:21:15.657Z,78.30
2018-09-18T22:23:46.015Z,78.40
2018-09-18T22:26:17.705Z,78.80
2018-09-18T22:28:48.847Z,79.00
2018-09-18T22:31:22.065Z,79.10
2018-09-18T22:33:53.114Z,79.10
2018-09-18T22:36:25.887Z,79.50
2018-09-18T22:38:57.106Z,79.50
2018-09-18T22:41:34.495Z,79.30
2018-09-18T22:44:05.057Z,79.00
2018-09-18T22:46:37.217Z,78.50
2018-09-18T22:49:08.397Z,78.20
2018-09-18T22:51:39.125Z,77.70
2018-09-18T22:54:12.396Z,77.70
2018-09-18T22:56:45.896Z,78.00
2018-09-18T22:59:16.668Z,78.30
2018-09-18T23:01:49.663Z,78.40
2018-09-18T23:04:20.944Z,78.30
2018-09-18T23:06:51.859Z,78.20
2018-09-18T23:09:22.839Z,78.10
2018-09-18T23:11:54.418Z,78.20
2018-09-18T23:14:25.954Z,78.60
2018-09-18T23:16:57.374Z,78.60
2018-09-18T23:19:28.494Z,78.80
2018-09-18T23:22:00.356Z,78.70
2018-09-18T23:24:32.648Z,78.10
2018-09-18T23:27:04.950Z,78.50
2018-09-18T23:29:37.470Z,78.30
2018-09-18T23:32:08.860Z,78.80
2018-09-18T23:34:40.087Z,79.10
2018-09-18T23:37:11.578Z,78.70
2018-09-18T23:39:43.162Z,78.90
2018-09-18T23:42:14.924Z,79.70
2018-09-18T23:44:45.503Z,79.90
2018-09-18T23:47:16.133Z,79.40
2018-09-18T23:49:47.822Z,80.00
2018-09-18T23:52:19.252Z,79.80
2018-09-18T23:54:50.320Z,79.50
2018-09-18T23:57:22.217Z,79.70
2018-09-18T23:59:52.679Z,79.40
